Aviation Digital Data Service (ADDS)

Output produced by METARs form (2010 UTC 28 July 2016)
found at http://www.aviationweather.gov/adds/metars/
 
KLGA 281947Z 2820/2918 18012G17KT P6SM SCT050 BKN200 
     FM282300 19008KT P6SM SCT040 BKN200 
     FM290200 21005KT P6SM VCSH SCT030 BKN090 
     FM290700 VRB03KT 4SM SHRA SCT006 BKN012 
     TEMPO 2907/2910 2SM TSRA OVC006CB 
     FM291000 12010G18KT 2SM SHRA BR OVC012 
     PROB30 2910/2914 1SM +TSRA OVC006CB 
     FM291600 35012G18KT 5SM -RA BR OVC015